CFG9PK EDDB-LGKO
Flight info
| Callsign | CFG9PK |
|---|---|
| Flight time | 2h 36m |
| Altitude | 35000 |
| Route | LUROS3Q/06R LUROS M725 HDO DCT GOLOP DCT ODNEM DCT PARAK DCT NISVA/N0454F370 DCT NIKTI DCT MES UN139 LURUS UL995 KOPAR/N0411F240 H59 LARKI |
| Aircraft | A321/M-SDE3FGHIRWY/LB1 |
Departure
| Time | 2026-05-08 17:14 |
|---|---|
| Airport | Berlin Brandenburg Airport (EDDB) |
Arrival
| Time | 2026-05-08 19:50 |
|---|---|
| Airport | Kos International Airport "Ippokratis" (LGKO) |
| Time | Latitude | Longitude | Altitude | Speed | Heading |
|---|---|---|---|---|---|
| 2026-05-08 16:49 | 52.36319 | 13.50625 | 155 ft | 0 kts | 69° |
| 2026-05-08 17:04 | 52.36312 | 13.50596 | 154 ft | 3 kts | 69° |
| 2026-05-08 17:05 | 52.36306 | 13.50568 | 154 ft | 3 kts | 69° |
| 2026-05-08 17:05 | 52.36299 | 13.50538 | 153 ft | 3 kts | 69° |
| 2026-05-08 17:05 | 52.36291 | 13.50508 | 153 ft | 3 kts | 69° |
| 2026-05-08 17:05 | 52.36284 | 13.50479 | 152 ft | 3 kts | 70° |
| 2026-05-08 17:06 | 52.36281 | 13.50447 | 151 ft | 3 kts | 101° |
| 2026-05-08 17:06 | 52.36288 | 13.50416 | 151 ft | 3 kts | 132° |
| 2026-05-08 17:06 | 52.36297 | 13.50402 | 151 ft | 0 kts | 147° |
| 2026-05-08 17:08 | 52.36293 | 13.50406 | 151 ft | 3 kts | 149° |
| 2026-05-08 17:08 | 52.36245 | 13.50444 | 151 ft | 12 kts | 157° |
| 2026-05-08 17:08 | 52.36145 | 13.50508 | 151 ft | 16 kts | 159° |
| 2026-05-08 17:09 | 52.36045 | 13.50570 | 151 ft | 15 kts | 159° |
| 2026-05-08 17:09 | 52.35956 | 13.50627 | 151 ft | 13 kts | 159° |
| 2026-05-08 17:09 | 52.35864 | 13.50637 | 150 ft | 14 kts | 188° |
| 2026-05-08 17:09 | 52.35785 | 13.50632 | 148 ft | 10 kts | 207° |
| 2026-05-08 17:10 | 52.35742 | 13.50492 | 148 ft | 17 kts | 249° |
| 2026-05-08 17:10 | 52.35699 | 13.50311 | 148 ft | 18 kts | 248° |
| 2026-05-08 17:10 | 52.35640 | 13.50064 | 148 ft | 28 kts | 248° |
| 2026-05-08 17:10 | 52.35568 | 13.49762 | 148 ft | 28 kts | 249° |
| 2026-05-08 17:11 | 52.35499 | 13.49472 | 148 ft | 27 kts | 249° |
| 2026-05-08 17:11 | 52.35434 | 13.49197 | 148 ft | 25 kts | 248° |
| 2026-05-08 17:11 | 52.35371 | 13.48938 | 148 ft | 24 kts | 246° |
| 2026-05-08 17:11 | 52.35314 | 13.48695 | 148 ft | 22 kts | 248° |
| 2026-05-08 17:12 | 52.35246 | 13.48492 | 148 ft | 19 kts | 204° |
| 2026-05-08 17:12 | 52.35131 | 13.48540 | 151 ft | 15 kts | 150° |
| 2026-05-08 17:12 | 52.35098 | 13.48672 | 154 ft | 13 kts | 99° |
| 2026-05-08 17:12 | 52.35076 | 13.48856 | 156 ft | 17 kts | 102° |
| 2026-05-08 17:13 | 52.35059 | 13.49014 | 157 ft | 15 kts | 75° |
| 2026-05-08 17:13 | 52.35150 | 13.49397 | 159 ft | 70 kts | 69° |
| 2026-05-08 17:13 | 52.35408 | 13.50480 | 158 ft | 131 kts | 69° |
| 2026-05-08 17:13 | 52.35774 | 13.52070 | 419 ft | 154 kts | 71° |
| 2026-05-08 17:14 | 52.35791 | 13.53798 | 1114 ft | 159 kts | 114° |
| 2026-05-08 17:14 | 52.35061 | 13.55238 | 1531 ft | 176 kts | 137° |
| 2026-05-08 17:14 | 52.34046 | 13.56569 | 1701 ft | 198 kts | 140° |
| 2026-05-08 17:14 | 52.32946 | 13.57995 | 2124 ft | 203 kts | 139° |
| 2026-05-08 17:15 | 52.31863 | 13.59500 | 2643 ft | 204 kts | 135° |
| 2026-05-08 17:15 | 52.31058 | 13.61330 | 3131 ft | 202 kts | 107° |
| 2026-05-08 17:15 | 52.30983 | 13.63630 | 3433 ft | 212 kts | 75° |
| 2026-05-08 17:15 | 52.31439 | 13.65982 | 3858 ft | 220 kts | 71° |
| 2026-05-08 17:16 | 52.31915 | 13.68381 | 4469 ft | 223 kts | 71° |
| 2026-05-08 17:16 | 52.32395 | 13.70820 | 5048 ft | 227 kts | 71° |
| 2026-05-08 17:16 | 52.32715 | 13.72462 | 5418 ft | 230 kts | 73° |
| 2026-05-08 17:16 | 52.32916 | 13.75077 | 5931 ft | 238 kts | 92° |
| 2026-05-08 17:17 | 52.32423 | 13.77785 | 6189 ft | 263 kts | 122° |
| 2026-05-08 17:17 | 52.31044 | 13.79812 | 6768 ft | 274 kts | 155° |
| 2026-05-08 17:17 | 52.29198 | 13.80576 | 7463 ft | 279 kts | 170° |
| 2026-05-08 17:17 | 52.27268 | 13.81106 | 8228 ft | 282 kts | 169° |
| 2026-05-08 17:18 | 52.25340 | 13.81787 | 8950 ft | 285 kts | 166° |
| 2026-05-08 17:18 | 52.23408 | 13.82602 | 9652 ft | 288 kts | 164° |
| 2026-05-08 17:18 | 52.21459 | 13.83474 | 10320 ft | 291 kts | 164° |
| 2026-05-08 17:18 | 52.19469 | 13.84369 | 10547 ft | 311 kts | 165° |
| 2026-05-08 17:19 | 52.17303 | 13.85328 | 10668 ft | 333 kts | 165° |
| 2026-05-08 17:19 | 52.14990 | 13.86336 | 10806 ft | 353 kts | 165° |
| 2026-05-08 17:19 | 52.12554 | 13.87388 | 10954 ft | 371 kts | 165° |
| 2026-05-08 17:19 | 52.10025 | 13.88472 | 11399 ft | 378 kts | 166° |
| 2026-05-08 17:20 | 52.07468 | 13.89565 | 11978 ft | 382 kts | 166° |
| 2026-05-08 17:20 | 52.04873 | 13.90669 | 12588 ft | 386 kts | 166° |
| 2026-05-08 17:20 | 52.02267 | 13.91767 | 13158 ft | 389 kts | 166° |
| 2026-05-08 17:20 | 51.99659 | 13.92864 | 13737 ft | 392 kts | 166° |
| 2026-05-08 17:21 | 51.97006 | 13.93980 | 14283 ft | 395 kts | 166° |
| 2026-05-08 17:21 | 51.94328 | 13.95107 | 14802 ft | 398 kts | 166° |
| 2026-05-08 17:21 | 51.91644 | 13.96239 | 15328 ft | 400 kts | 166° |
| 2026-05-08 17:21 | 51.88926 | 13.97390 | 15831 ft | 402 kts | 166° |
| 2026-05-08 17:22 | 51.86237 | 13.98531 | 16305 ft | 405 kts | 166° |
| 2026-05-08 17:22 | 51.83484 | 13.99694 | 16814 ft | 408 kts | 167° |
| 2026-05-08 17:22 | 51.80732 | 14.00851 | 17293 ft | 410 kts | 167° |
| 2026-05-08 17:22 | 51.77949 | 14.02018 | 17784 ft | 413 kts | 167° |
| 2026-05-08 17:23 | 51.75193 | 14.03171 | 18256 ft | 416 kts | 167° |
| 2026-05-08 17:23 | 51.72380 | 14.04349 | 18688 ft | 418 kts | 167° |
| 2026-05-08 17:23 | 51.69545 | 14.05537 | 19100 ft | 421 kts | 167° |
| 2026-05-08 17:23 | 51.66693 | 14.06727 | 19503 ft | 423 kts | 167° |
| 2026-05-08 17:24 | 51.63824 | 14.07923 | 19915 ft | 426 kts | 167° |
| 2026-05-08 17:24 | 51.60985 | 14.09104 | 20326 ft | 428 kts | 167° |
| 2026-05-08 17:24 | 51.58089 | 14.10305 | 20740 ft | 430 kts | 167° |
| 2026-05-08 17:24 | 51.55170 | 14.11517 | 21146 ft | 433 kts | 167° |
| 2026-05-08 17:25 | 51.52240 | 14.12734 | 21531 ft | 436 kts | 167° |
| 2026-05-08 17:25 | 51.49299 | 14.13952 | 21924 ft | 438 kts | 167° |
| 2026-05-08 17:25 | 51.46369 | 14.15168 | 22325 ft | 441 kts | 166° |
| 2026-05-08 17:25 | 51.43388 | 14.16403 | 22727 ft | 443 kts | 167° |
| 2026-05-08 17:26 | 51.40397 | 14.17639 | 23110 ft | 446 kts | 167° |
| 2026-05-08 17:26 | 51.37369 | 14.18886 | 23502 ft | 448 kts | 167° |
| 2026-05-08 17:26 | 51.34333 | 14.20133 | 23863 ft | 450 kts | 167° |
| 2026-05-08 17:26 | 51.31324 | 14.21367 | 24180 ft | 452 kts | 167° |
| 2026-05-08 17:27 | 51.28262 | 14.22625 | 24495 ft | 454 kts | 167° |
| 2026-05-08 17:27 | 51.25196 | 14.23886 | 24810 ft | 455 kts | 167° |
| 2026-05-08 17:27 | 51.22112 | 14.25152 | 25133 ft | 457 kts | 167° |
| 2026-05-08 17:27 | 51.19024 | 14.26416 | 25448 ft | 458 kts | 167° |
| 2026-05-08 17:28 | 51.15960 | 14.27666 | 25755 ft | 460 kts | 167° |
| 2026-05-08 17:28 | 51.12848 | 14.28931 | 26082 ft | 462 kts | 167° |
| 2026-05-08 17:28 | 51.09727 | 14.30194 | 26411 ft | 463 kts | 167° |
| 2026-05-08 17:28 | 51.06592 | 14.31443 | 26741 ft | 463 kts | 167° |
| 2026-05-08 17:29 | 51.03449 | 14.32682 | 27168 ft | 462 kts | 167° |
| 2026-05-08 17:29 | 51.00339 | 14.33904 | 27599 ft | 460 kts | 167° |
| 2026-05-08 17:29 | 50.97231 | 14.35128 | 28004 ft | 459 kts | 167° |
| 2026-05-08 17:29 | 50.94176 | 14.36335 | 28402 ft | 458 kts | 167° |
| 2026-05-08 17:30 | 50.91085 | 14.37545 | 28807 ft | 456 kts | 168° |
| 2026-05-08 17:30 | 50.87990 | 14.38718 | 29208 ft | 455 kts | 168° |
| 2026-05-08 17:30 | 50.84901 | 14.39864 | 29607 ft | 454 kts | 168° |
| 2026-05-08 17:30 | 50.81819 | 14.40997 | 30001 ft | 452 kts | 168° |
| 2026-05-08 17:31 | 50.78795 | 14.42107 | 30347 ft | 451 kts | 169° |
| 2026-05-08 17:31 | 50.75736 | 14.43232 | 30663 ft | 451 kts | 169° |
| 2026-05-08 17:31 | 50.72677 | 14.44360 | 30959 ft | 450 kts | 169° |
| 2026-05-08 17:31 | 50.69618 | 14.45488 | 31261 ft | 450 kts | 169° |
| 2026-05-08 17:32 | 50.66564 | 14.46615 | 31568 ft | 449 kts | 169° |
| 2026-05-08 17:32 | 50.63557 | 14.47742 | 31862 ft | 449 kts | 167° |
| 2026-05-08 17:32 | 50.60597 | 14.49392 | 32144 ft | 452 kts | 158° |
| 2026-05-08 17:32 | 50.57844 | 14.51782 | 32430 ft | 454 kts | 148° |
| 2026-05-08 17:33 | 50.55349 | 14.54880 | 32716 ft | 457 kts | 139° |
| 2026-05-08 17:33 | 50.53118 | 14.58467 | 32999 ft | 458 kts | 136° |
| 2026-05-08 17:33 | 50.50900 | 14.62083 | 33126 ft | 458 kts | 136° |
| 2026-05-08 17:33 | 50.48681 | 14.65670 | 33141 ft | 457 kts | 137° |
| 2026-05-08 17:34 | 50.44272 | 14.72761 | 33140 ft | 455 kts | 137° |
| 2026-05-08 17:34 | 50.39844 | 14.79871 | 33135 ft | 455 kts | 137° |
| 2026-05-08 17:35 | 50.35394 | 14.87000 | 33136 ft | 460 kts | 137° |
| 2026-05-08 17:35 | 50.30934 | 14.94149 | 33134 ft | 462 kts | 137° |
| 2026-05-08 17:36 | 50.26435 | 15.01341 | 33129 ft | 462 kts | 137° |
| 2026-05-08 17:36 | 50.21928 | 15.08521 | 33126 ft | 462 kts | 137° |
| 2026-05-08 17:37 | 50.17410 | 15.15690 | 33122 ft | 462 kts | 137° |
| 2026-05-08 17:37 | 50.12918 | 15.22812 | 33116 ft | 462 kts | 137° |
| 2026-05-08 17:38 | 50.08395 | 15.29950 | 33112 ft | 462 kts | 137° |
| 2026-05-08 17:38 | 50.03865 | 15.37069 | 33106 ft | 462 kts | 138° |
| 2026-05-08 17:39 | 49.99358 | 15.44155 | 33097 ft | 463 kts | 138° |
| 2026-05-08 17:39 | 49.94809 | 15.51273 | 33093 ft | 463 kts | 139° |
| 2026-05-08 17:40 | 49.90258 | 15.58369 | 33087 ft | 464 kts | 139° |
| 2026-05-08 17:40 | 49.85691 | 15.65477 | 33088 ft | 465 kts | 139° |
| 2026-05-08 17:41 | 49.81110 | 15.72580 | 33090 ft | 467 kts | 140° |
| 2026-05-08 17:41 | 49.76541 | 15.79658 | 33092 ft | 468 kts | 140° |
| 2026-05-08 17:42 | 49.71922 | 15.86795 | 33092 ft | 469 kts | 140° |
| 2026-05-08 17:42 | 49.67284 | 15.93926 | 33095 ft | 470 kts | 141° |
| 2026-05-08 17:43 | 49.62652 | 16.01025 | 33092 ft | 471 kts | 141° |
| 2026-05-08 17:43 | 49.57986 | 16.08157 | 33090 ft | 472 kts | 141° |
| 2026-05-08 17:44 | 49.53304 | 16.15302 | 33087 ft | 473 kts | 142° |
| 2026-05-08 17:44 | 49.48648 | 16.22394 | 33088 ft | 474 kts | 142° |
| 2026-05-08 17:45 | 49.43946 | 16.29526 | 33086 ft | 474 kts | 142° |
| 2026-05-08 17:45 | 49.39235 | 16.36637 | 33084 ft | 474 kts | 142° |
| 2026-05-08 17:46 | 49.34521 | 16.43743 | 33075 ft | 474 kts | 142° |
| 2026-05-08 17:46 | 49.29832 | 16.50807 | 33078 ft | 474 kts | 142° |
| 2026-05-08 17:47 | 49.25104 | 16.57903 | 33076 ft | 474 kts | 142° |
| 2026-05-08 17:47 | 49.21175 | 16.63785 | 33072 ft | 473 kts | 142° |
| 2026-05-08 17:48 | 49.15690 | 16.71952 | 33067 ft | 473 kts | 142° |
| 2026-05-08 17:48 | 49.10997 | 16.78939 | 33064 ft | 473 kts | 142° |
| 2026-05-08 17:49 | 49.06268 | 16.85956 | 33074 ft | 472 kts | 143° |
| 2026-05-08 17:49 | 49.01560 | 16.92921 | 33081 ft | 472 kts | 142° |
| 2026-05-08 17:50 | 48.96877 | 16.99841 | 33082 ft | 471 kts | 142° |
| 2026-05-08 17:50 | 48.92146 | 17.06794 | 33076 ft | 471 kts | 143° |
| 2026-05-08 17:51 | 48.87443 | 17.13673 | 33078 ft | 471 kts | 142° |
| 2026-05-08 17:51 | 48.82487 | 17.20072 | 33079 ft | 464 kts | 149° |
| 2026-05-08 17:52 | 48.77353 | 17.26008 | 33071 ft | 464 kts | 149° |
| 2026-05-08 17:53 | 48.69688 | 17.34876 | 33063 ft | 463 kts | 149° |
| 2026-05-08 17:53 | 48.64563 | 17.40784 | 33057 ft | 463 kts | 149° |
| 2026-05-08 17:54 | 48.59427 | 17.46679 | 33052 ft | 463 kts | 149° |
| 2026-05-08 17:54 | 48.54325 | 17.52518 | 33051 ft | 462 kts | 149° |
| 2026-05-08 17:55 | 48.49186 | 17.58391 | 33046 ft | 462 kts | 149° |
| 2026-05-08 17:55 | 48.44052 | 17.64244 | 33043 ft | 461 kts | 149° |
| 2026-05-08 17:56 | 48.38958 | 17.70025 | 33041 ft | 461 kts | 149° |
| 2026-05-08 17:56 | 48.33814 | 17.75858 | 33040 ft | 461 kts | 149° |
| 2026-05-08 17:57 | 48.28722 | 17.81609 | 33036 ft | 460 kts | 149° |
| 2026-05-08 17:57 | 48.23585 | 17.87393 | 33032 ft | 460 kts | 150° |
| 2026-05-08 17:58 | 48.18461 | 17.93156 | 33033 ft | 460 kts | 149° |
| 2026-05-08 17:58 | 48.13343 | 17.98904 | 33031 ft | 460 kts | 149° |
| 2026-05-08 17:59 | 48.09080 | 18.03683 | 33027 ft | 460 kts | 149° |
| 2026-05-08 17:59 | 48.03100 | 18.10367 | 33031 ft | 460 kts | 149° |
| 2026-05-08 18:00 | 47.98826 | 18.15120 | 33030 ft | 459 kts | 149° |
| 2026-05-08 18:00 | 47.91140 | 18.23648 | 33033 ft | 459 kts | 149° |
| 2026-05-08 18:01 | 47.86010 | 18.29323 | 33027 ft | 458 kts | 149° |
| 2026-05-08 18:01 | 47.80882 | 18.34990 | 33026 ft | 458 kts | 149° |
| 2026-05-08 18:02 | 47.75783 | 18.40614 | 33022 ft | 458 kts | 149° |
| 2026-05-08 18:02 | 47.70649 | 18.46249 | 33029 ft | 458 kts | 149° |
| 2026-05-08 18:03 | 47.65535 | 18.51848 | 33025 ft | 459 kts | 149° |
| 2026-05-08 18:03 | 47.60388 | 18.57471 | 33025 ft | 459 kts | 149° |
| 2026-05-08 18:04 | 47.55238 | 18.63086 | 33022 ft | 459 kts | 149° |
| 2026-05-08 18:04 | 47.50113 | 18.68659 | 33023 ft | 459 kts | 149° |
| 2026-05-08 18:05 | 47.44952 | 18.74270 | 33022 ft | 459 kts | 149° |
| 2026-05-08 18:05 | 47.39791 | 18.79853 | 33019 ft | 459 kts | 149° |
| 2026-05-08 18:06 | 47.34655 | 18.85389 | 33015 ft | 459 kts | 149° |
| 2026-05-08 18:06 | 47.29498 | 18.90941 | 33015 ft | 458 kts | 149° |
| 2026-05-08 18:07 | 47.24351 | 18.96476 | 33007 ft | 457 kts | 149° |
| 2026-05-08 18:07 | 47.19207 | 19.01990 | 33018 ft | 457 kts | 149° |
| 2026-05-08 18:08 | 47.14096 | 19.07458 | 33019 ft | 456 kts | 149° |
| 2026-05-08 18:08 | 47.08948 | 19.12943 | 33028 ft | 455 kts | 149° |
| 2026-05-08 18:09 | 47.03803 | 19.18403 | 33024 ft | 455 kts | 149° |
| 2026-05-08 18:09 | 46.98701 | 19.23815 | 33022 ft | 455 kts | 149° |
| 2026-05-08 18:10 | 46.93574 | 19.29256 | 33020 ft | 454 kts | 149° |
| 2026-05-08 18:10 | 46.88442 | 19.34669 | 33015 ft | 454 kts | 149° |
| 2026-05-08 18:11 | 46.83309 | 19.40072 | 33009 ft | 454 kts | 149° |
| 2026-05-08 18:11 | 46.78201 | 19.45450 | 33009 ft | 454 kts | 149° |
| 2026-05-08 18:12 | 46.73090 | 19.50813 | 33008 ft | 454 kts | 149° |
| 2026-05-08 18:12 | 46.67935 | 19.56193 | 33009 ft | 455 kts | 149° |
| 2026-05-08 18:13 | 46.62783 | 19.61570 | 33008 ft | 455 kts | 149° |
| 2026-05-08 18:13 | 46.57626 | 19.66947 | 33010 ft | 456 kts | 149° |
| 2026-05-08 18:14 | 46.52490 | 19.72283 | 33010 ft | 456 kts | 149° |
| 2026-05-08 18:14 | 46.47298 | 19.77651 | 33011 ft | 456 kts | 149° |
| 2026-05-08 18:15 | 46.42154 | 19.82964 | 33014 ft | 456 kts | 149° |
| 2026-05-08 18:15 | 46.36982 | 19.88308 | 33013 ft | 456 kts | 149° |
| 2026-05-08 18:16 | 46.31839 | 19.93608 | 33015 ft | 456 kts | 149° |
| 2026-05-08 18:16 | 46.26654 | 19.98918 | 33015 ft | 455 kts | 149° |
| 2026-05-08 18:17 | 46.21482 | 20.04205 | 33018 ft | 455 kts | 149° |
| 2026-05-08 18:17 | 46.16294 | 20.09487 | 33018 ft | 455 kts | 149° |
| 2026-05-08 18:18 | 46.11020 | 20.14460 | 33017 ft | 453 kts | 152° |
| 2026-05-08 18:18 | 46.05639 | 20.19201 | 33015 ft | 453 kts | 153° |
| 2026-05-08 18:19 | 46.00252 | 20.23943 | 33012 ft | 453 kts | 152° |
| 2026-05-08 18:19 | 45.94907 | 20.28727 | 33010 ft | 453 kts | 152° |
| 2026-05-08 18:20 | 45.89556 | 20.33538 | 33011 ft | 453 kts | 152° |
| 2026-05-08 18:20 | 45.84231 | 20.38308 | 33007 ft | 453 kts | 152° |
| 2026-05-08 18:21 | 45.78866 | 20.43084 | 33008 ft | 453 kts | 152° |
| 2026-05-08 18:21 | 45.73495 | 20.47853 | 33010 ft | 454 kts | 152° |
| 2026-05-08 18:22 | 45.68160 | 20.52592 | 33004 ft | 454 kts | 152° |
| 2026-05-08 18:22 | 45.62792 | 20.57350 | 33001 ft | 454 kts | 152° |
| 2026-05-08 18:23 | 45.57403 | 20.62111 | 33005 ft | 454 kts | 152° |
| 2026-05-08 18:23 | 45.52031 | 20.66832 | 33000 ft | 453 kts | 152° |
| 2026-05-08 18:24 | 45.46684 | 20.71516 | 33005 ft | 453 kts | 152° |
| 2026-05-08 18:24 | 45.41301 | 20.76248 | 33006 ft | 453 kts | 151° |
| 2026-05-08 18:25 | 45.35965 | 20.80929 | 33002 ft | 453 kts | 152° |
| 2026-05-08 18:25 | 45.30590 | 20.85616 | 33003 ft | 453 kts | 151° |
| 2026-05-08 18:26 | 45.25209 | 20.90298 | 32994 ft | 452 kts | 151° |
| 2026-05-08 18:26 | 45.19874 | 20.94932 | 32994 ft | 452 kts | 151° |
| 2026-05-08 18:27 | 45.15371 | 20.98837 | 32993 ft | 452 kts | 151° |
| 2026-05-08 18:27 | 45.09127 | 21.04238 | 32995 ft | 452 kts | 151° |
| 2026-05-08 18:28 | 45.03782 | 21.08863 | 33003 ft | 452 kts | 151° |
| 2026-05-08 18:28 | 44.98408 | 21.13505 | 33011 ft | 451 kts | 151° |
| 2026-05-08 18:29 | 44.93062 | 21.18092 | 33007 ft | 451 kts | 151° |
| 2026-05-08 18:29 | 44.87691 | 21.22696 | 33008 ft | 450 kts | 151° |
| 2026-05-08 18:30 | 44.82337 | 21.27275 | 33003 ft | 450 kts | 151° |
| 2026-05-08 18:30 | 44.76977 | 21.31857 | 33003 ft | 449 kts | 151° |
| 2026-05-08 18:31 | 44.71670 | 21.36378 | 33007 ft | 449 kts | 151° |
| 2026-05-08 18:31 | 44.66319 | 21.40920 | 32999 ft | 449 kts | 151° |
| 2026-05-08 18:32 | 44.60948 | 21.45468 | 33000 ft | 449 kts | 150° |
| 2026-05-08 18:32 | 44.55630 | 21.49979 | 33007 ft | 449 kts | 150° |
| 2026-05-08 18:33 | 44.50269 | 21.54510 | 33003 ft | 449 kts | 150° |
| 2026-05-08 18:33 | 44.44936 | 21.59013 | 32999 ft | 449 kts | 150° |
| 2026-05-08 18:34 | 44.39563 | 21.63522 | 33001 ft | 449 kts | 150° |
| 2026-05-08 18:34 | 44.34195 | 21.68022 | 33012 ft | 449 kts | 150° |
| 2026-05-08 18:35 | 44.28841 | 21.72502 | 33006 ft | 450 kts | 150° |
| 2026-05-08 18:35 | 44.23488 | 21.76969 | 33059 ft | 451 kts | 150° |
| 2026-05-08 18:36 | 44.20792 | 21.79217 | 33178 ft | 451 kts | 150° |
| 2026-05-08 18:36 | 44.18097 | 21.81462 | 33292 ft | 451 kts | 150° |
| 2026-05-08 18:36 | 44.15402 | 21.83706 | 33395 ft | 450 kts | 150° |
| 2026-05-08 18:36 | 44.12706 | 21.85951 | 33496 ft | 450 kts | 150° |
| 2026-05-08 18:37 | 44.10016 | 21.88190 | 33603 ft | 450 kts | 150° |
| 2026-05-08 18:37 | 44.07326 | 21.90425 | 33713 ft | 449 kts | 150° |
| 2026-05-08 18:37 | 44.04666 | 21.92632 | 33815 ft | 449 kts | 150° |
| 2026-05-08 18:37 | 44.01976 | 21.94862 | 33911 ft | 449 kts | 150° |
| 2026-05-08 18:38 | 43.99287 | 21.97087 | 34029 ft | 449 kts | 150° |
| 2026-05-08 18:38 | 43.96610 | 21.99300 | 34127 ft | 449 kts | 150° |
| 2026-05-08 18:38 | 43.91252 | 22.03717 | 34315 ft | 450 kts | 150° |
| 2026-05-08 18:39 | 43.85845 | 22.08164 | 34505 ft | 451 kts | 150° |
| 2026-05-08 18:39 | 43.80478 | 22.12582 | 34691 ft | 452 kts | 150° |
| 2026-05-08 18:40 | 43.75064 | 22.17014 | 34918 ft | 452 kts | 150° |
| 2026-05-08 18:40 | 43.69631 | 22.21451 | 35031 ft | 453 kts | 150° |
| 2026-05-08 18:41 | 43.64194 | 22.25890 | 35029 ft | 453 kts | 150° |
| 2026-05-08 18:41 | 43.58779 | 22.30305 | 35031 ft | 454 kts | 150° |
| 2026-05-08 18:42 | 43.53322 | 22.34737 | 35035 ft | 454 kts | 151° |
| 2026-05-08 18:42 | 43.47899 | 22.39129 | 35038 ft | 454 kts | 151° |
| 2026-05-08 18:43 | 43.42442 | 22.43548 | 35037 ft | 455 kts | 151° |
| 2026-05-08 18:43 | 43.36981 | 22.47965 | 35039 ft | 455 kts | 151° |
| 2026-05-08 18:44 | 43.31540 | 22.52352 | 35043 ft | 455 kts | 151° |
| 2026-05-08 18:44 | 43.26955 | 22.56036 | 35045 ft | 455 kts | 151° |
| 2026-05-08 18:45 | 43.21516 | 22.60393 | 35050 ft | 455 kts | 151° |
| 2026-05-08 18:45 | 43.16033 | 22.64790 | 35052 ft | 455 kts | 151° |
| 2026-05-08 18:46 | 43.10535 | 22.69192 | 35055 ft | 455 kts | 151° |
| 2026-05-08 18:46 | 43.05097 | 22.73541 | 35059 ft | 455 kts | 151° |
| 2026-05-08 18:47 | 42.99603 | 22.77898 | 35065 ft | 456 kts | 151° |
| 2026-05-08 18:47 | 42.94218 | 22.82375 | 35069 ft | 456 kts | 147° |
| 2026-05-08 18:48 | 42.89026 | 22.87367 | 35062 ft | 456 kts | 145° |
| 2026-05-08 18:48 | 42.83887 | 22.92476 | 35062 ft | 456 kts | 145° |
| 2026-05-08 18:49 | 42.78710 | 22.97466 | 35069 ft | 456 kts | 146° |
| 2026-05-08 18:49 | 42.73520 | 23.02343 | 35073 ft | 456 kts | 146° |
| 2026-05-08 18:50 | 42.68285 | 23.07255 | 35076 ft | 456 kts | 146° |
| 2026-05-08 18:50 | 42.63061 | 23.12182 | 35080 ft | 456 kts | 146° |
| 2026-05-08 18:51 | 42.57839 | 23.17099 | 35087 ft | 456 kts | 146° |
| 2026-05-08 18:51 | 42.52648 | 23.21974 | 35081 ft | 456 kts | 146° |
| 2026-05-08 18:52 | 42.47413 | 23.26893 | 35083 ft | 456 kts | 146° |
| 2026-05-08 18:52 | 42.42183 | 23.31774 | 35081 ft | 456 kts | 146° |
| 2026-05-08 18:53 | 42.36971 | 23.36632 | 35073 ft | 456 kts | 146° |
| 2026-05-08 18:53 | 42.31740 | 23.41503 | 35085 ft | 456 kts | 146° |
| 2026-05-08 18:54 | 42.26503 | 23.46369 | 35084 ft | 456 kts | 146° |
| 2026-05-08 18:54 | 42.21264 | 23.51224 | 35084 ft | 456 kts | 146° |
| 2026-05-08 18:55 | 42.13437 | 23.58472 | 35083 ft | 456 kts | 146° |
| 2026-05-08 18:56 | 42.08191 | 23.63320 | 35087 ft | 456 kts | 146° |
| 2026-05-08 18:56 | 42.02977 | 23.68110 | 35085 ft | 456 kts | 146° |
| 2026-05-08 18:57 | 41.97742 | 23.72927 | 35085 ft | 456 kts | 146° |
| 2026-05-08 18:57 | 41.92492 | 23.77753 | 35088 ft | 456 kts | 146° |
| 2026-05-08 18:58 | 41.87268 | 23.82528 | 35082 ft | 456 kts | 147° |
| 2026-05-08 18:58 | 41.82002 | 23.87333 | 35081 ft | 457 kts | 147° |
| 2026-05-08 18:59 | 41.76747 | 23.92120 | 35075 ft | 457 kts | 147° |
| 2026-05-08 18:59 | 41.71500 | 23.96889 | 35075 ft | 458 kts | 147° |
| 2026-05-08 19:00 | 41.66217 | 24.01684 | 35078 ft | 458 kts | 147° |
| 2026-05-08 19:00 | 41.60926 | 24.06480 | 35086 ft | 458 kts | 147° |
| 2026-05-08 19:01 | 41.55634 | 24.11240 | 35087 ft | 458 kts | 149° |
| 2026-05-08 19:01 | 41.49892 | 24.14891 | 35089 ft | 457 kts | 158° |
| 2026-05-08 19:02 | 41.44060 | 24.18194 | 35083 ft | 457 kts | 158° |
| 2026-05-08 19:02 | 41.38189 | 24.21513 | 35089 ft | 457 kts | 158° |
| 2026-05-08 19:03 | 41.32358 | 24.24821 | 35093 ft | 458 kts | 158° |
| 2026-05-08 19:03 | 41.26497 | 24.28152 | 35100 ft | 458 kts | 158° |
| 2026-05-08 19:04 | 41.20618 | 24.31479 | 35103 ft | 459 kts | 158° |
| 2026-05-08 19:04 | 41.14734 | 24.34799 | 35091 ft | 459 kts | 159° |
| 2026-05-08 19:05 | 41.08875 | 24.38091 | 35079 ft | 459 kts | 159° |
| 2026-05-08 19:05 | 41.02991 | 24.41397 | 35074 ft | 460 kts | 159° |
| 2026-05-08 19:06 | 40.97082 | 24.44716 | 35061 ft | 460 kts | 159° |
| 2026-05-08 19:06 | 40.91180 | 24.48018 | 35056 ft | 460 kts | 159° |
| 2026-05-08 19:07 | 40.85311 | 24.51297 | 35055 ft | 461 kts | 160° |
| 2026-05-08 19:07 | 40.79384 | 24.54596 | 35055 ft | 461 kts | 160° |
| 2026-05-08 19:08 | 40.73450 | 24.57890 | 35061 ft | 462 kts | 160° |
| 2026-05-08 19:08 | 40.67544 | 24.61168 | 35070 ft | 462 kts | 160° |
| 2026-05-08 19:09 | 40.61597 | 24.64462 | 35075 ft | 463 kts | 160° |
| 2026-05-08 19:09 | 40.55661 | 24.67750 | 35084 ft | 463 kts | 160° |
| 2026-05-08 19:10 | 40.49754 | 24.71016 | 35085 ft | 463 kts | 160° |
| 2026-05-08 19:10 | 40.43790 | 24.74303 | 35076 ft | 464 kts | 161° |
| 2026-05-08 19:11 | 40.37853 | 24.77562 | 35075 ft | 464 kts | 161° |
| 2026-05-08 19:11 | 40.31880 | 24.80838 | 35075 ft | 465 kts | 161° |
| 2026-05-08 19:12 | 40.25888 | 24.84121 | 35071 ft | 465 kts | 161° |
| 2026-05-08 19:12 | 40.19928 | 24.87368 | 35070 ft | 466 kts | 161° |
| 2026-05-08 19:13 | 40.13937 | 24.90640 | 35066 ft | 466 kts | 161° |
| 2026-05-08 19:13 | 40.07979 | 24.93896 | 35064 ft | 466 kts | 162° |
| 2026-05-08 19:14 | 40.01986 | 24.97154 | 35058 ft | 466 kts | 162° |
| 2026-05-08 19:14 | 39.95973 | 25.00413 | 35053 ft | 467 kts | 162° |
| 2026-05-08 19:15 | 39.89964 | 25.03659 | 35055 ft | 467 kts | 162° |
| 2026-05-08 19:15 | 39.83985 | 25.06886 | 35050 ft | 467 kts | 163° |
| 2026-05-08 19:16 | 39.77973 | 25.10130 | 35041 ft | 468 kts | 163° |
| 2026-05-08 19:16 | 39.71932 | 25.13382 | 35048 ft | 468 kts | 163° |
| 2026-05-08 19:17 | 39.65891 | 25.16624 | 35052 ft | 469 kts | 163° |
| 2026-05-08 19:17 | 39.59898 | 25.19850 | 35057 ft | 469 kts | 163° |
| 2026-05-08 19:18 | 39.53864 | 25.23089 | 35060 ft | 469 kts | 164° |
| 2026-05-08 19:18 | 39.47865 | 25.26502 | 35059 ft | 476 kts | 156° |
| 2026-05-08 19:19 | 39.42163 | 25.30932 | 35062 ft | 478 kts | 155° |
| 2026-05-08 19:19 | 39.36490 | 25.35373 | 35059 ft | 479 kts | 156° |
| 2026-05-08 19:20 | 39.30764 | 25.39838 | 35058 ft | 479 kts | 156° |
| 2026-05-08 19:20 | 39.25035 | 25.44146 | 35056 ft | 475 kts | 160° |
| 2026-05-08 19:21 | 39.19088 | 25.47936 | 35056 ft | 475 kts | 162° |
| 2026-05-08 19:21 | 39.13150 | 25.51561 | 35054 ft | 474 kts | 163° |
| 2026-05-08 19:22 | 39.07165 | 25.55214 | 35054 ft | 475 kts | 162° |
| 2026-05-08 19:22 | 39.01192 | 25.58907 | 35059 ft | 476 kts | 162° |
| 2026-05-08 19:23 | 38.95245 | 25.62587 | 35061 ft | 477 kts | 163° |
| 2026-05-08 19:23 | 38.89241 | 25.66287 | 35060 ft | 477 kts | 163° |
| 2026-05-08 19:24 | 38.83246 | 25.69970 | 35064 ft | 477 kts | 163° |
| 2026-05-08 19:24 | 38.77243 | 25.73654 | 35054 ft | 478 kts | 163° |
| 2026-05-08 19:24 | 38.74272 | 25.75473 | 34719 ft | 480 kts | 163° |
| 2026-05-08 19:25 | 38.71260 | 25.77319 | 34266 ft | 479 kts | 163° |
| 2026-05-08 19:25 | 38.68246 | 25.79168 | 33778 ft | 480 kts | 163° |
| 2026-05-08 19:25 | 38.65232 | 25.81013 | 33268 ft | 480 kts | 163° |
| 2026-05-08 19:25 | 38.62211 | 25.82857 | 32763 ft | 481 kts | 163° |
| 2026-05-08 19:26 | 38.59215 | 25.84685 | 32278 ft | 481 kts | 163° |
| 2026-05-08 19:26 | 38.56186 | 25.86533 | 31791 ft | 482 kts | 163° |
| 2026-05-08 19:26 | 38.53160 | 25.88377 | 31313 ft | 483 kts | 163° |
| 2026-05-08 19:26 | 38.50107 | 25.90231 | 30844 ft | 483 kts | 162° |
| 2026-05-08 19:27 | 38.47062 | 25.92076 | 30379 ft | 484 kts | 162° |
| 2026-05-08 19:27 | 38.45044 | 25.93300 | 30062 ft | 485 kts | 162° |
| 2026-05-08 19:27 | 38.40992 | 25.95759 | 29343 ft | 486 kts | 162° |
| 2026-05-08 19:27 | 38.37922 | 25.97622 | 28836 ft | 487 kts | 162° |
| 2026-05-08 19:28 | 38.35852 | 25.98877 | 28487 ft | 488 kts | 162° |
| 2026-05-08 19:28 | 38.32790 | 26.00733 | 27990 ft | 489 kts | 161° |
| 2026-05-08 19:28 | 38.29749 | 26.02573 | 27493 ft | 489 kts | 161° |
| 2026-05-08 19:28 | 38.26667 | 26.04434 | 27007 ft | 490 kts | 161° |
| 2026-05-08 19:29 | 38.23574 | 26.06298 | 26545 ft | 491 kts | 161° |
| 2026-05-08 19:29 | 38.20482 | 26.08163 | 26053 ft | 491 kts | 161° |
| 2026-05-08 19:29 | 38.17381 | 26.10033 | 25586 ft | 492 kts | 161° |
| 2026-05-08 19:29 | 38.14314 | 26.11880 | 25142 ft | 493 kts | 160° |
| 2026-05-08 19:30 | 38.11197 | 26.13754 | 24690 ft | 494 kts | 160° |
| 2026-05-08 19:30 | 38.08097 | 26.15617 | 24249 ft | 494 kts | 160° |
| 2026-05-08 19:30 | 38.04986 | 26.17491 | 23815 ft | 492 kts | 160° |
| 2026-05-08 19:30 | 38.01894 | 26.19353 | 23321 ft | 488 kts | 160° |
| 2026-05-08 19:31 | 37.98871 | 26.21166 | 22876 ft | 485 kts | 160° |
| 2026-05-08 19:31 | 37.95824 | 26.22986 | 22431 ft | 482 kts | 160° |
| 2026-05-08 19:31 | 37.92790 | 26.24793 | 21980 ft | 478 kts | 160° |
| 2026-05-08 19:31 | 37.89780 | 26.26585 | 21547 ft | 475 kts | 160° |
| 2026-05-08 19:32 | 37.86795 | 26.28366 | 21116 ft | 472 kts | 159° |
| 2026-05-08 19:32 | 37.83829 | 26.30137 | 20696 ft | 469 kts | 159° |
| 2026-05-08 19:32 | 37.80915 | 26.31873 | 20283 ft | 466 kts | 159° |
| 2026-05-08 19:32 | 37.77984 | 26.33618 | 19870 ft | 464 kts | 159° |
| 2026-05-08 19:33 | 37.75076 | 26.35350 | 19464 ft | 457 kts | 159° |
| 2026-05-08 19:33 | 37.72226 | 26.37047 | 19089 ft | 446 kts | 159° |
| 2026-05-08 19:33 | 37.69455 | 26.38693 | 18761 ft | 434 kts | 159° |
| 2026-05-08 19:33 | 37.66751 | 26.40300 | 18433 ft | 424 kts | 159° |
| 2026-05-08 19:34 | 37.64115 | 26.41864 | 18066 ft | 414 kts | 159° |
| 2026-05-08 19:34 | 37.61557 | 26.43376 | 17673 ft | 405 kts | 159° |
| 2026-05-08 19:34 | 37.59019 | 26.44874 | 17279 ft | 398 kts | 159° |
| 2026-05-08 19:34 | 37.56539 | 26.46340 | 16893 ft | 390 kts | 159° |
| 2026-05-08 19:35 | 37.54087 | 26.47791 | 16524 ft | 384 kts | 159° |
| 2026-05-08 19:35 | 37.51716 | 26.49197 | 16185 ft | 365 kts | 159° |
| 2026-05-08 19:35 | 37.49514 | 26.50507 | 15865 ft | 343 kts | 159° |
| 2026-05-08 19:35 | 37.47413 | 26.51755 | 15570 ft | 323 kts | 159° |
| 2026-05-08 19:36 | 37.45397 | 26.52941 | 15288 ft | 318 kts | 160° |
| 2026-05-08 19:36 | 37.43398 | 26.54106 | 14992 ft | 314 kts | 160° |
| 2026-05-08 19:36 | 37.41422 | 26.55259 | 14709 ft | 311 kts | 160° |
| 2026-05-08 19:36 | 37.39467 | 26.56404 | 14426 ft | 308 kts | 159° |
| 2026-05-08 19:37 | 37.37533 | 26.57537 | 14151 ft | 305 kts | 159° |
| 2026-05-08 19:37 | 37.35635 | 26.58647 | 13828 ft | 303 kts | 159° |
| 2026-05-08 19:37 | 37.33720 | 26.59765 | 13485 ft | 302 kts | 159° |
| 2026-05-08 19:37 | 37.31825 | 26.60875 | 13143 ft | 300 kts | 159° |
| 2026-05-08 19:38 | 37.29940 | 26.61979 | 12814 ft | 298 kts | 159° |
| 2026-05-08 19:38 | 37.28063 | 26.63080 | 12476 ft | 296 kts | 159° |
| 2026-05-08 19:38 | 37.26195 | 26.64176 | 12151 ft | 294 kts | 159° |
| 2026-05-08 19:38 | 37.24342 | 26.65261 | 11828 ft | 292 kts | 159° |
| 2026-05-08 19:39 | 37.22496 | 26.66339 | 11503 ft | 291 kts | 159° |
| 2026-05-08 19:39 | 37.20694 | 26.67393 | 11187 ft | 289 kts | 159° |
| 2026-05-08 19:39 | 37.18893 | 26.68449 | 10919 ft | 280 kts | 159° |
| 2026-05-08 19:39 | 37.17158 | 26.69469 | 10599 ft | 273 kts | 159° |
| 2026-05-08 19:40 | 37.15449 | 26.70470 | 10282 ft | 269 kts | 159° |
| 2026-05-08 19:40 | 37.13764 | 26.71455 | 9979 ft | 265 kts | 159° |
| 2026-05-08 19:40 | 37.12095 | 26.72425 | 9646 ft | 261 kts | 159° |
| 2026-05-08 19:40 | 37.10454 | 26.73378 | 9330 ft | 257 kts | 159° |
| 2026-05-08 19:41 | 37.08839 | 26.74316 | 9024 ft | 254 kts | 159° |
| 2026-05-08 19:41 | 37.07253 | 26.75239 | 8725 ft | 251 kts | 159° |
| 2026-05-08 19:41 | 37.05683 | 26.76155 | 8457 ft | 247 kts | 159° |
| 2026-05-08 19:41 | 37.04149 | 26.77047 | 8137 ft | 245 kts | 159° |
| 2026-05-08 19:42 | 37.02604 | 26.77944 | 7813 ft | 243 kts | 158° |
| 2026-05-08 19:42 | 37.01078 | 26.78830 | 7493 ft | 240 kts | 159° |
| 2026-05-08 19:42 | 36.99574 | 26.79704 | 7183 ft | 236 kts | 158° |
| 2026-05-08 19:42 | 36.98094 | 26.80564 | 6872 ft | 233 kts | 158° |
| 2026-05-08 19:43 | 36.96646 | 26.81405 | 6563 ft | 225 kts | 158° |
| 2026-05-08 19:43 | 36.95273 | 26.82207 | 6240 ft | 216 kts | 158° |
| 2026-05-08 19:43 | 36.93947 | 26.83028 | 5915 ft | 211 kts | 149° |
| 2026-05-08 19:43 | 36.92990 | 26.84398 | 5587 ft | 211 kts | 116° |
| 2026-05-08 19:44 | 36.92754 | 26.86189 | 5266 ft | 211 kts | 83° |
| 2026-05-08 19:44 | 36.93290 | 26.87868 | 4985 ft | 209 kts | 56° |
| 2026-05-08 19:44 | 36.94100 | 26.89381 | 4747 ft | 209 kts | 56° |
| 2026-05-08 19:44 | 36.94901 | 26.90893 | 4501 ft | 208 kts | 57° |
| 2026-05-08 19:45 | 36.95696 | 26.92401 | 4247 ft | 207 kts | 58° |
| 2026-05-08 19:45 | 36.96176 | 26.94047 | 3994 ft | 203 kts | 88° |
| 2026-05-08 19:45 | 36.95922 | 26.95733 | 3752 ft | 196 kts | 119° |
| 2026-05-08 19:45 | 36.95052 | 26.96977 | 3512 ft | 188 kts | 148° |
| 2026-05-08 19:46 | 36.93957 | 26.97824 | 3271 ft | 183 kts | 150° |
| 2026-05-08 19:46 | 36.92895 | 26.98646 | 3083 ft | 174 kts | 150° |
| 2026-05-08 19:46 | 36.90922 | 27.00177 | 2980 ft | 164 kts | 150° |
| 2026-05-08 19:47 | 36.89965 | 27.00922 | 2730 ft | 163 kts | 150° |
| 2026-05-08 19:47 | 36.89008 | 27.01669 | 2484 ft | 160 kts | 150° |
| 2026-05-08 19:47 | 36.88097 | 27.02382 | 2299 ft | 148 kts | 150° |
| 2026-05-08 19:47 | 36.87241 | 27.03051 | 2082 ft | 143 kts | 150° |
| 2026-05-08 19:48 | 36.86398 | 27.03713 | 1872 ft | 142 kts | 149° |
| 2026-05-08 19:48 | 36.85568 | 27.04373 | 1661 ft | 141 kts | 149° |
| 2026-05-08 19:48 | 36.84743 | 27.05015 | 1462 ft | 141 kts | 150° |
| 2026-05-08 19:48 | 36.83903 | 27.05659 | 1291 ft | 141 kts | 149° |
| 2026-05-08 19:49 | 36.83068 | 27.06317 | 1106 ft | 142 kts | 148° |
| 2026-05-08 19:49 | 36.82230 | 27.06978 | 914 ft | 142 kts | 149° |
| 2026-05-08 19:49 | 36.81385 | 27.07614 | 717 ft | 141 kts | 147° |
| 2026-05-08 19:49 | 36.80559 | 27.08254 | 503 ft | 141 kts | 147° |
| 2026-05-08 19:50 | 36.79758 | 27.08879 | 414 ft | 124 kts | 148° |
| 2026-05-08 19:50 | 36.79272 | 27.09258 | 409 ft | 58 kts | 148° |
| 2026-05-08 19:50 | 36.79095 | 27.09380 | 401 ft | 8 kts | 114° |
| 2026-05-08 19:50 | 36.79105 | 27.09390 | 401 ft | 3 kts | 342° |
| 2026-05-08 19:51 | 36.79150 | 27.09353 | 404 ft | 8 kts | 327° |
| 2026-05-08 19:51 | 36.79193 | 27.09318 | 405 ft | 10 kts | 327° |
| 2026-05-08 19:51 | 36.79269 | 27.09259 | 409 ft | 13 kts | 328° |
| 2026-05-08 19:51 | 36.79340 | 27.09205 | 412 ft | 14 kts | 328° |
| 2026-05-08 19:52 | 36.79471 | 27.09105 | 412 ft | 29 kts | 328° |
| 2026-05-08 19:52 | 36.79653 | 27.08993 | 412 ft | 29 kts | 355° |
| 2026-05-08 19:52 | 36.79804 | 27.08985 | 415 ft | 20 kts | 359° |
| 2026-05-08 19:52 | 36.79937 | 27.08972 | 413 ft | 19 kts | 338° |
| 2026-05-08 19:53 | 36.80046 | 27.08895 | 413 ft | 18 kts | 327° |
| 2026-05-08 19:53 | 36.80118 | 27.08839 | 414 ft | 11 kts | 328° |
| 2026-05-08 19:53 | 36.80163 | 27.08869 | 416 ft | 5 kts | 56° |
| 2026-05-08 19:53 | 36.80179 | 27.08899 | 413 ft | 0 kts | 58° |